createdAt,value
2017-06-02T00:02:25.397Z,17.40
2017-06-02T00:04:53.692Z,17.30
2017-06-02T00:07:22.036Z,17.10
2017-06-02T00:09:50.329Z,17.30
2017-06-02T00:12:18.642Z,17.40
2017-06-02T00:14:47.012Z,17.30
2017-06-02T00:17:15.309Z,17.20
2017-06-02T00:19:43.634Z,17.20
2017-06-02T00:22:11.970Z,17.10
2017-06-02T00:24:40.264Z,17.20
2017-06-02T00:27:08.560Z,17.00
2017-06-02T00:29:37.244Z,17.10
2017-06-02T00:32:05.545Z,17.00
2017-06-02T00:34:33.846Z,16.90
2017-06-02T00:37:02.201Z,17.10
2017-06-02T00:39:30.497Z,17.00
2017-06-02T00:41:58.792Z,17.10
2017-06-02T00:44:27.127Z,16.90
2017-06-02T00:46:55.429Z,16.90
2017-06-02T00:49:23.734Z,16.80
2017-06-02T00:51:52.064Z,16.90
2017-06-02T00:54:20.365Z,16.80
2017-06-02T00:56:48.664Z,16.90
2017-06-02T00:59:17.003Z,16.90
2017-06-02T01:01:45.294Z,16.90
2017-06-02T01:04:13.583Z,16.90
2017-06-02T01:06:41.920Z,16.70
2017-06-02T01:09:10.213Z,16.70
2017-06-02T01:11:38.516Z,16.80
2017-06-02T01:14:06.868Z,16.70
2017-06-02T01:16:35.168Z,16.70
2017-06-02T01:19:03.460Z,16.70
2017-06-02T01:21:31.794Z,16.90
2017-06-02T01:24:00.080Z,16.90
2017-06-02T01:26:28.372Z,17.00
2017-06-02T01:28:56.712Z,16.80
2017-06-02T01:31:25.001Z,16.60
2017-06-02T01:33:53.296Z,16.40
2017-06-02T01:36:21.632Z,16.40
2017-06-02T01:38:49.919Z,16.50
2017-06-02T01:41:18.213Z,16.50
2017-06-02T01:43:46.561Z,16.40
2017-06-02T01:46:14.849Z,16.40
2017-06-02T01:48:43.136Z,16.40
2017-06-02T01:51:11.468Z,16.30
2017-06-02T01:53:39.764Z,16.30
2017-06-02T01:56:07.288Z,16.30
2017-06-02T01:58:34.851Z,16.20
2017-06-02T02:01:03.145Z,16.20
2017-06-02T02:03:31.431Z,16.10
2017-06-02T02:05:59.758Z,16.20
2017-06-02T02:08:27.276Z,16.20
2017-06-02T02:10:55.558Z,16.20
2017-06-02T02:13:23.895Z,16.20
2017-06-02T02:15:52.199Z,16.10
2017-06-02T02:18:20.505Z,16.10
2017-06-02T02:20:48.877Z,16.40
2017-06-02T02:23:17.170Z,16.20
2017-06-02T02:25:45.457Z,16.00
2017-06-02T02:28:13.789Z,16.10
2017-06-02T02:30:42.080Z,16.20
2017-06-02T02:33:10.373Z,16.20
2017-06-02T02:35:38.710Z,16.20
2017-06-02T02:38:07.005Z,16.20
2017-06-02T02:40:35.290Z,16.30
2017-06-02T02:43:03.618Z,16.30
2017-06-02T02:45:31.915Z,16.20
2017-06-02T02:48:00.216Z,16.10
2017-06-02T02:50:28.541Z,16.10
2017-06-02T02:52:56.836Z,15.80
2017-06-02T02:55:25.128Z,15.70
2017-06-02T02:57:53.469Z,15.70
2017-06-02T03:00:21.880Z,15.80
2017-06-02T03:02:50.169Z,15.80
2017-06-02T03:05:18.497Z,15.70
2017-06-02T03:07:46.783Z,15.90
2017-06-02T03:10:15.073Z,15.80
2017-06-02T03:12:42.675Z,15.80
2017-06-02T03:15:10.964Z,16.00
2017-06-02T03:17:39.259Z,15.90
2017-06-02T03:20:07.600Z,15.80
2017-06-02T03:22:35.903Z,15.90
2017-06-02T03:25:04.193Z,16.00
2017-06-02T03:27:32.526Z,16.00
2017-06-02T03:30:00.813Z,15.90
2017-06-02T03:32:29.112Z,15.90
2017-06-02T03:34:57.450Z,15.80
2017-06-02T03:37:25.739Z,15.80
2017-06-02T03:39:54.024Z,15.70
2017-06-02T03:42:22.361Z,15.60
2017-06-02T03:44:50.652Z,15.70
2017-06-02T03:47:18.944Z,15.80
2017-06-02T03:49:46.516Z,15.70
2017-06-02T03:52:14.808Z,15.70
2017-06-02T03:54:43.097Z,15.60
2017-06-02T03:57:11.428Z,15.50
2017-06-02T03:59:39.721Z,15.50
2017-06-02T04:02:08.012Z,15.80
2017-06-02T04:04:35.581Z,15.70
2017-06-02T04:07:03.872Z,16.00
2017-06-02T04:09:32.161Z,15.90
2017-06-02T04:12:00.500Z,16.10
2017-06-02T04:14:28.794Z,16.10
2017-06-02T04:16:57.089Z,16.20
2017-06-02T04:19:24.664Z,16.10
2017-06-02T04:21:52.945Z,16.30
2017-06-02T04:24:21.235Z,16.30
2017-06-02T04:26:49.561Z,16.20
2017-06-02T04:29:17.852Z,16.20
2017-06-02T04:31:46.150Z,16.40
2017-06-02T04:34:14.497Z,16.20
2017-06-02T04:36:42.782Z,16.20
2017-06-02T04:39:11.079Z,16.30
2017-06-02T04:41:39.441Z,16.20
2017-06-02T04:44:07.737Z,16.30
2017-06-02T04:46:36.029Z,16.40
2017-06-02T04:49:04.363Z,16.70
2017-06-02T04:51:32.648Z,16.60
2017-06-02T04:54:00.940Z,16.40
2017-06-02T04:56:29.268Z,16.50
2017-06-02T04:58:57.563Z,16.40
2017-06-02T05:01:25.869Z,16.50
2017-06-02T05:03:54.216Z,16.50
2017-06-02T05:06:22.501Z,16.50
2017-06-02T05:08:50.793Z,16.50
2017-06-02T05:11:19.120Z,16.60
2017-06-02T05:13:47.408Z,16.80
2017-06-02T05:16:15.693Z,16.90
2017-06-02T05:18:44.261Z,17.00
2017-06-02T05:21:12.548Z,17.10
2017-06-02T05:23:40.831Z,17.20
2017-06-02T05:26:09.388Z,17.30
2017-06-02T05:28:37.688Z,17.40
2017-06-02T05:31:05.979Z,17.70
2017-06-02T05:33:34.320Z,18.00
2017-06-02T05:36:02.611Z,18.40
2017-06-02T05:38:30.920Z,18.80
2017-06-02T05:40:59.244Z,18.90
2017-06-02T05:43:27.527Z,19.20
2017-06-02T05:45:55.816Z,19.10
2017-06-02T05:48:24.224Z,19.10
2017-06-02T05:50:52.604Z,19.30
2017-06-02T05:53:20.918Z,19.60
2017-06-02T05:55:49.241Z,19.80
2017-06-02T05:58:17.526Z,20.10
2017-06-02T06:00:45.812Z,20.00
2017-06-02T06:03:14.159Z,20.30
2017-06-02T06:05:42.447Z,20.50
2017-06-02T06:08:10.727Z,20.60
2017-06-02T06:10:39.047Z,20.80
2017-06-02T06:13:07.351Z,21.00
2017-06-02T06:15:35.636Z,21.10
2017-06-02T06:18:03.973Z,21.10
2017-06-02T06:20:32.256Z,21.20
2017-06-02T06:23:00.550Z,21.30
2017-06-02T06:25:28.880Z,21.40
2017-06-02T06:27:57.167Z,21.50
2017-06-02T06:30:25.448Z,21.70
2017-06-02T06:32:53.776Z,21.60
2017-06-02T06:35:21.296Z,21.50
2017-06-02T06:37:49.592Z,21.60
2017-06-02T06:40:17.931Z,21.60
2017-06-02T06:42:46.453Z,21.40
2017-06-02T06:45:14.738Z,21.50
2017-06-02T06:47:43.064Z,21.40
2017-06-02T06:50:11.356Z,21.40
2017-06-02T06:52:39.651Z,21.40
2017-06-02T06:55:08.005Z,21.50
2017-06-02T06:57:36.288Z,21.70
2017-06-02T07:00:04.579Z,21.80
2017-06-02T07:02:32.943Z,22.00
2017-06-02T07:05:01.237Z,22.30
2017-06-02T07:07:29.772Z,22.80
2017-06-02T07:09:58.140Z,23.10
2017-06-02T07:12:26.430Z,23.70
2017-06-02T07:14:54.717Z,24.10
2017-06-02T07:17:23.055Z,24.10
2017-06-02T07:19:51.337Z,24.20
2017-06-02T07:22:19.628Z,24.40
2017-06-02T07:24:47.965Z,24.50
2017-06-02T07:27:16.250Z,24.70
2017-06-02T07:29:44.536Z,24.80
2017-06-02T07:32:13.000Z,24.80
2017-06-02T07:34:41.284Z,24.80
2017-06-02T07:37:09.571Z,24.90
2017-06-02T07:39:37.979Z,25.10
2017-06-02T07:42:07.911Z,25.30
2017-06-02T07:44:37.125Z,25.60
2017-06-02T07:47:05.948Z,25.80
2017-06-02T07:52:48.235Z,26.10
2017-06-02T07:58:22.272Z,25.70
2017-06-02T08:00:58.732Z,25.90
2017-06-02T08:03:33.401Z,25.90
2017-06-02T08:06:24.717Z,25.50
2017-06-02T08:09:13.581Z,25.20
2017-06-02T08:11:53.887Z,25.40
2017-06-02T08:17:35.849Z,25.90
2017-06-02T08:20:15.383Z,26.10
2017-06-02T08:23:19.297Z,25.90
2017-06-02T08:26:00.996Z,25.70
2017-06-02T08:34:04.832Z,25.30
2017-06-02T08:36:42.126Z,25.70
2017-06-02T08:39:23.240Z,26.40
2017-06-02T09:05:14.081Z,26.60
2017-06-02T09:07:42.641Z,26.50
2017-06-02T09:10:10.940Z,25.80
2017-06-02T09:12:39.232Z,25.20
2017-06-02T09:15:07.571Z,25.30
2017-06-02T09:17:35.865Z,24.90
2017-06-02T09:20:04.202Z,24.50
2017-06-02T09:22:32.541Z,24.20
2017-06-02T09:25:00.830Z,24.50
2017-06-02T09:27:29.122Z,24.70
2017-06-02T09:29:57.459Z,25.10
2017-06-02T09:32:25.749Z,25.30
2017-06-02T09:34:54.076Z,25.40
2017-06-02T09:37:22.417Z,25.50
2017-06-02T09:39:50.709Z,25.70
2017-06-02T09:42:19.004Z,26.20
2017-06-02T09:44:47.340Z,27.10
2017-06-02T09:47:15.624Z,27.10
2017-06-02T09:49:43.917Z,27.50
2017-06-02T09:52:12.243Z,27.80
2017-06-02T09:54:40.537Z,27.40
2017-06-02T09:57:08.841Z,27.10
2017-06-02T09:59:37.201Z,26.90
2017-06-02T10:02:05.501Z,27.00
2017-06-02T10:04:33.811Z,26.80
2017-06-02T10:07:02.184Z,26.60
2017-06-02T10:09:30.494Z,27.10
2017-06-02T10:11:58.816Z,27.50
2017-06-02T10:14:27.221Z,27.70
2017-06-02T10:16:55.547Z,27.20
2017-06-02T10:19:23.119Z,27.10
2017-06-02T10:21:51.467Z,26.60
2017-06-02T10:24:19.809Z,26.30
2017-06-02T10:26:48.109Z,26.00
2017-06-02T10:29:16.482Z,25.70
2017-06-02T10:31:44.818Z,25.40
2017-06-02T10:34:13.115Z,25.10
2017-06-02T10:36:41.458Z,24.80
2017-06-02T10:39:09.764Z,24.50
2017-06-02T10:41:38.059Z,24.30
2017-06-02T10:44:06.478Z,23.90
2017-06-02T10:46:39.211Z,23.60
2017-06-02T10:49:08.991Z,23.10
2017-06-02T10:51:37.561Z,22.80
2017-06-02T10:54:05.997Z,22.40
2017-06-02T10:56:34.342Z,22.00
2017-06-02T10:59:02.657Z,21.60
2017-06-02T11:01:30.947Z,21.00
2017-06-02T11:03:59.480Z,20.90
2017-06-02T11:06:27.771Z,20.70
2017-06-02T11:08:56.061Z,20.20
2017-06-02T11:11:24.400Z,20.00
2017-06-02T11:13:52.697Z,19.90
2017-06-02T11:16:20.988Z,19.80
2017-06-02T11:18:49.316Z,19.50
2017-06-02T11:21:17.601Z,19.40
2017-06-02T11:23:45.886Z,19.30
2017-06-02T11:26:14.214Z,19.10
2017-06-02T11:28:42.496Z,18.80
2017-06-02T11:31:10.791Z,19.10
2017-06-02T11:33:39.129Z,19.50
2017-06-02T11:36:07.422Z,19.40
2017-06-02T11:38:34.941Z,19.40
2017-06-02T11:41:03.274Z,19.40
2017-06-02T11:43:31.565Z,19.40
2017-06-02T11:45:59.897Z,19.40
2017-06-02T11:48:27.464Z,19.40
2017-06-02T11:50:55.752Z,19.20
2017-06-02T11:53:23.271Z,19.10
2017-06-02T11:55:51.603Z,18.90
2017-06-02T11:58:19.891Z,18.90
2017-06-02T12:00:48.176Z,18.90
2017-06-02T12:03:16.508Z,19.00
2017-06-02T12:05:44.796Z,19.10
2017-06-02T12:08:13.084Z,19.20
2017-06-02T12:10:41.421Z,19.10
2017-06-02T12:13:09.711Z,19.00
2017-06-02T12:15:38.215Z,19.20
2017-06-02T12:18:06.777Z,19.40
2017-06-02T12:20:35.071Z,19.30
2017-06-02T12:23:03.353Z,19.60
2017-06-02T12:25:31.688Z,19.90
2017-06-02T12:27:59.977Z,19.70
2017-06-02T12:30:28.272Z,19.60
2017-06-02T12:32:56.611Z,19.50
2017-06-02T12:35:24.897Z,19.10
2017-06-02T12:37:53.175Z,19.30
2017-06-02T12:40:21.568Z,19.30
2017-06-02T12:42:49.865Z,19.60
2017-06-02T12:45:18.388Z,19.80
2017-06-02T12:47:46.718Z,19.90
2017-06-02T12:50:15.012Z,20.10
2017-06-02T12:52:43.295Z,20.50
2017-06-02T12:55:11.633Z,20.60
2017-06-02T12:57:39.932Z,20.70
2017-06-02T13:00:08.228Z,21.10
2017-06-02T13:02:36.561Z,21.20
2017-06-02T13:05:04.854Z,21.30
2017-06-02T13:07:33.140Z,21.60
2017-06-02T13:10:01.461Z,21.60
2017-06-02T13:12:29.804Z,21.70
2017-06-02T13:14:58.091Z,21.90
2017-06-02T13:17:26.379Z,22.00
2017-06-02T13:19:54.699Z,22.20
2017-06-02T13:22:22.988Z,22.20
2017-06-02T13:24:51.277Z,22.50
2017-06-02T13:27:19.604Z,22.70
2017-06-02T13:29:47.895Z,22.60
2017-06-02T13:32:16.176Z,22.80
2017-06-02T13:34:44.483Z,22.80
2017-06-02T13:37:12.776Z,22.80
2017-06-02T13:39:41.121Z,23.00
2017-06-02T13:42:09.411Z,23.10
2017-06-02T13:44:36.931Z,23.10
2017-06-02T13:47:05.259Z,23.10
2017-06-02T13:49:33.552Z,23.20
2017-06-02T13:52:01.838Z,23.20
2017-06-02T13:54:30.160Z,23.40
2017-06-02T13:56:58.483Z,23.30
2017-06-02T13:59:26.759Z,23.30
2017-06-02T14:01:55.073Z,23.30
2017-06-02T14:04:23.360Z,23.10
2017-06-02T14:06:51.692Z,23.20
2017-06-02T14:09:19.980Z,23.50
2017-06-02T14:11:48.268Z,23.60
2017-06-02T14:14:16.599Z,23.60
2017-06-02T14:16:44.899Z,23.70
2017-06-02T14:19:13.192Z,23.90
2017-06-02T14:21:41.517Z,23.80
2017-06-02T14:24:09.797Z,23.80
2017-06-02T14:26:38.083Z,23.90
2017-06-02T14:29:06.423Z,23.80
2017-06-02T14:31:34.720Z,23.70
2017-06-02T14:34:03.005Z,23.60
2017-06-02T14:36:31.340Z,23.80
2017-06-02T14:38:59.632Z,23.70
2017-06-02T14:41:27.922Z,23.50
2017-06-02T14:43:56.252Z,23.60
2017-06-02T14:46:24.536Z,23.60
2017-06-02T14:48:52.830Z,23.70
2017-06-02T14:51:21.157Z,23.70
2017-06-02T14:53:49.444Z,23.60
2017-06-02T14:56:17.732Z,23.50
2017-06-02T14:58:46.064Z,23.60
2017-06-02T15:01:18.500Z,23.50
2017-06-02T15:03:46.863Z,23.50
2017-06-02T15:06:15.151Z,23.50
2017-06-02T15:08:43.440Z,23.40
2017-06-02T15:11:11.771Z,23.40
2017-06-02T15:13:40.067Z,23.40
2017-06-02T15:16:07.593Z,23.40
2017-06-02T15:18:35.936Z,23.30
2017-06-02T15:21:04.245Z,23.30
2017-06-02T15:23:32.569Z,23.30
2017-06-02T15:26:00.905Z,23.20
2017-06-02T15:28:29.197Z,23.30
2017-06-02T15:30:57.484Z,23.20
2017-06-02T15:33:25.816Z,23.40
2017-06-02T15:35:54.099Z,23.20
2017-06-02T15:38:22.389Z,23.30
2017-06-02T15:40:50.724Z,23.30
2017-06-02T15:43:19.028Z,23.30
2017-06-02T15:45:47.324Z,23.30
2017-06-02T15:48:15.662Z,23.40
2017-06-02T15:50:43.947Z,23.20
2017-06-02T15:53:12.240Z,23.30
2017-06-02T15:55:40.573Z,23.50
2017-06-02T15:58:08.871Z,23.30
2017-06-02T16:00:37.174Z,23.40
2017-06-02T16:03:05.504Z,23.60
2017-06-02T16:05:44.621Z,23.40
2017-06-02T16:08:13.222Z,23.30
2017-06-02T16:10:41.607Z,23.30
2017-06-02T16:13:09.918Z,23.40
2017-06-02T16:15:38.258Z,23.30
2017-06-02T16:18:06.666Z,23.20
2017-06-02T16:20:35.956Z,23.20
2017-06-02T16:23:04.450Z,23.30
2017-06-02T16:25:32.762Z,23.40
2017-06-02T16:28:01.058Z,23.60
2017-06-02T16:30:29.397Z,23.70
2017-06-02T16:32:57.696Z,23.50
2017-06-02T16:35:26.006Z,23.50
2017-06-02T16:37:54.397Z,23.30
2017-06-02T16:40:22.684Z,23.10
2017-06-02T16:42:50.972Z,23.00
2017-06-02T16:45:19.339Z,22.90
2017-06-02T16:47:47.628Z,22.90
2017-06-02T16:50:15.925Z,22.90
2017-06-02T16:52:44.268Z,22.90
2017-06-02T16:55:12.781Z,22.80
2017-06-02T16:57:41.078Z,22.70
2017-06-02T17:00:09.434Z,22.70
2017-06-02T17:02:37.806Z,22.70
2017-06-02T17:05:06.103Z,22.80
2017-06-02T17:07:34.468Z,22.70
2017-06-02T17:10:02.756Z,22.70
2017-06-02T17:12:31.094Z,22.60
2017-06-02T17:14:59.428Z,22.80
2017-06-02T17:17:28.707Z,22.70
2017-06-02T17:19:57.001Z,22.70
2017-06-02T17:22:25.349Z,22.50
2017-06-02T17:24:53.647Z,22.30
2017-06-02T17:27:21.937Z,22.20
2017-06-02T17:29:50.277Z,22.20
2017-06-02T17:32:18.568Z,22.10
2017-06-02T17:34:46.857Z,22.10
2017-06-02T17:37:51.447Z,22.10
2017-06-02T17:40:18.971Z,22.10
2017-06-02T17:42:46.492Z,22.20
2017-06-02T17:45:14.111Z,22.00
2017-06-02T17:47:41.632Z,21.90
2017-06-02T17:50:09.919Z,21.90
2017-06-02T17:52:37.485Z,21.90
2017-06-02T17:55:05.017Z,21.90
2017-06-02T17:57:32.533Z,22.00
2017-06-02T18:00:00.096Z,21.90
2017-06-02T18:02:27.619Z,21.70
2017-06-02T18:04:55.128Z,21.60
2017-06-02T18:07:22.676Z,21.40
2017-06-02T18:09:50.192Z,21.50
2017-06-02T18:12:18.477Z,21.40
2017-06-02T18:14:46.036Z,21.30
2017-06-02T18:17:13.560Z,21.10
2017-06-02T18:19:41.095Z,21.10
2017-06-02T18:22:08.646Z,21.10
2017-06-02T18:24:36.211Z,21.10
2017-06-02T18:27:03.728Z,21.10
2017-06-02T18:29:31.280Z,21.10
2017-06-02T18:31:59.560Z,21.10
2017-06-02T18:34:27.140Z,21.00
2017-06-02T18:36:54.656Z,21.00
2017-06-02T18:39:22.169Z,20.90
2017-06-02T18:41:49.727Z,20.80
2017-06-02T18:44:17.243Z,20.60
2017-06-02T18:46:44.758Z,20.50
2017-06-02T18:49:12.310Z,20.50
2017-06-02T18:51:39.839Z,20.40
2017-06-02T18:54:08.124Z,20.20
2017-06-02T18:56:36.443Z,20.00
2017-06-02T18:59:03.957Z,20.00
2017-06-02T19:01:31.476Z,19.90
2017-06-02T19:03:59.056Z,19.80
2017-06-02T19:06:26.587Z,19.80
2017-06-02T19:08:54.100Z,19.70
2017-06-02T19:11:22.421Z,19.60
2017-06-02T19:13:50.133Z,19.50
2017-06-02T19:16:18.424Z,19.40
2017-06-02T19:18:47.422Z,19.40
2017-06-02T19:21:14.944Z,19.40
2017-06-02T19:23:42.456Z,19.60
2017-06-02T19:26:10.016Z,19.70
2017-06-02T19:28:37.540Z,19.80
2017-06-02T19:31:05.064Z,19.60
2017-06-02T19:33:32.615Z,19.70
2017-06-02T19:36:00.125Z,19.60
2017-06-02T19:38:28.408Z,19.20
2017-06-02T19:40:55.964Z,19.20
2017-06-02T19:43:23.476Z,19.10
2017-06-02T19:45:50.990Z,18.90
2017-06-02T19:48:18.572Z,19.00
2017-06-02T19:50:46.080Z,19.20
2017-06-02T19:53:13.592Z,19.30
2017-06-02T19:55:41.148Z,19.10
2017-06-02T19:58:08.660Z,18.90
2017-06-02T20:00:36.176Z,18.80
2017-06-02T20:03:03.740Z,18.70
2017-06-02T20:05:31.265Z,18.70
2017-06-02T20:07:59.656Z,18.60
2017-06-02T20:10:27.224Z,18.60
2017-06-02T20:12:54.741Z,18.60
2017-06-02T20:15:22.257Z,18.60
2017-06-02T20:17:49.817Z,18.50
2017-06-02T20:20:17.337Z,18.70
2017-06-02T20:22:45.620Z,18.60
2017-06-02T20:25:13.953Z,18.50
2017-06-02T20:27:41.476Z,18.50
2017-06-02T20:30:09.050Z,18.50
2017-06-02T20:32:36.623Z,18.40
2017-06-02T20:35:04.157Z,18.30
2017-06-02T20:37:31.675Z,18.30
2017-06-02T20:39:59.241Z,18.20
2017-06-02T20:42:26.760Z,18.10
2017-06-02T20:44:54.300Z,18.10
2017-06-02T20:47:21.861Z,18.00
2017-06-02T20:49:49.376Z,18.00
2017-06-02T20:52:16.892Z,18.00
2017-06-02T20:54:44.468Z,18.00
2017-06-02T20:57:11.992Z,18.00
2017-06-02T20:59:39.504Z,18.00
2017-06-02T21:02:07.084Z,17.80
2017-06-02T21:04:34.608Z,17.80
2017-06-02T21:07:02.123Z,17.80
2017-06-02T21:09:29.708Z,17.70
2017-06-02T21:11:57.222Z,17.60
2017-06-02T21:14:24.732Z,17.50
2017-06-02T21:16:52.301Z,17.50
2017-06-02T21:19:19.807Z,17.50
2017-06-02T21:21:48.084Z,17.80
2017-06-02T21:24:15.650Z,17.70
2017-06-02T21:26:43.932Z,17.40
2017-06-02T21:29:12.204Z,17.40
2017-06-02T21:31:40.533Z,17.40
2017-06-02T21:34:08.069Z,17.40
2017-06-02T21:36:35.576Z,17.50
2017-06-02T21:39:03.156Z,17.70
2017-06-02T21:41:30.676Z,17.70
2017-06-02T21:43:58.193Z,17.60
2017-06-02T21:46:26.529Z,17.50
2017-06-02T21:48:54.035Z,17.40
2017-06-02T21:51:21.544Z,17.30
2017-06-02T21:53:49.100Z,17.20
2017-06-02T21:56:16.620Z,17.20
2017-06-02T21:58:44.148Z,17.20
2017-06-02T22:01:11.738Z,17.00
2017-06-02T22:03:39.247Z,16.90
2017-06-02T22:06:06.765Z,16.80
2017-06-02T22:08:34.334Z,16.70
2017-06-02T22:11:02.087Z,16.70
2017-06-02T22:13:29.600Z,16.80
2017-06-02T22:15:57.174Z,16.80
2017-06-02T22:18:24.703Z,16.70
2017-06-02T22:20:52.225Z,16.80
2017-06-02T22:23:19.890Z,16.70
2017-06-02T22:25:47.446Z,16.70
2017-06-02T22:28:14.981Z,16.70
2017-06-02T22:30:43.327Z,16.70
2017-06-02T22:33:10.868Z,16.70
2017-06-02T22:35:38.413Z,16.80
2017-06-02T22:38:06.068Z,16.70
2017-06-02T22:40:33.593Z,16.80
2017-06-02T22:43:01.120Z,16.80
2017-06-02T22:45:28.694Z,16.70
2017-06-02T22:47:56.213Z,16.50
2017-06-02T22:50:23.752Z,16.80
2017-06-02T22:52:52.084Z,16.50
2017-06-02T22:55:19.605Z,16.50
2017-06-02T22:57:47.128Z,16.40
2017-06-02T23:00:14.710Z,16.40
2017-06-02T23:02:43.000Z,16.40
2017-06-02T23:05:10.524Z,16.40
2017-06-02T23:07:38.107Z,16.60
2017-06-02T23:10:06.401Z,16.40
2017-06-02T23:12:33.928Z,16.40
2017-06-02T23:15:01.511Z,16.60
2017-06-02T23:17:29.801Z,16.80
2017-06-02T23:19:57.337Z,16.70
2017-06-02T23:22:25.681Z,16.30
2017-06-02T23:24:53.209Z,16.30
2017-06-02T23:27:20.733Z,16.30
2017-06-02T23:29:48.331Z,16.30
2017-06-02T23:32:15.863Z,16.20
2017-06-02T23:34:44.156Z,16.20
2017-06-02T23:37:11.746Z,16.20
2017-06-02T23:39:39.297Z,16.20
2017-06-02T23:42:06.923Z,16.40
2017-06-02T23:44:34.549Z,16.40
2017-06-02T23:47:02.190Z,16.50
2017-06-02T23:49:29.710Z,16.40
2017-06-02T23:51:58.064Z,16.40
2017-06-02T23:54:25.600Z,16.30
2017-06-02T23:56:53.145Z,16.30
2017-06-02T23:59:20.747Z,16.40
